Station Historical Data
Daily Summary for June 29, 2017 Units:  English    Metric   Both
« Previous Day
Next Day »
Daily Weekly Monthly Yearly Custom
  High: Low: Average:
Temperature: 80.8 °F 69.6 °F 73.1 °F
Dew Point: 73.9 °F 63.4 °F 67.5 °F
Humidity: 94% 69% 83%
Wind Speed: 5.1mph 0.0mph 3.4mph
Wind Gust: 5.1mph - -
Wind- - SW
Pressure: 30.16 in 30.07 in -
Precipitation: 0.08 in    
Historical Graphs
 
 
Tabular Data for June 29, 2017
Time Temperature Dew Point Pressure Wind Wind Speed Wind Gust Humidity Rainfall Rate (Hourly) Conditions
00:00 72.8 °F 65.5 °F 30.13 in NW 5.1 mph   78% 0.00 in CLR
00:05 72.8 °F 65.5 °F 30.13 in Calm     78% 0.00 in CLR
00:10 72.7 °F 65.4 °F 30.12 in Calm     78% 0.00 in CLR
00:15 72.6 °F 65.3 °F 30.13 in Calm     78% 0.00 in CLR
00:20 72.5 °F 65.2 °F 30.13 in Calm     78% 0.00 in CLR
00:25 72.4 °F 65.2 °F 30.12 in Calm     78% 0.00 in CLR
00:33 72.2 °F 65.3 °F 30.12 in NW 5.1 mph   79% 0.00 in CLR
00:38 72.1 °F 65.2 °F 30.13 in NW 5.1 mph   79% 0.00 in CLR
00:44 72.0 °F 65.1 °F 30.12 in NW 5.1 mph   79% 0.00 in CLR
00:49 72.0 °F 65.5 °F 30.12 in NW 5.1 mph   80% 0.00 in CLR
00:54 72.0 °F 65.1 °F 30.12 in NW 5.1 mph   79% 0.00 in CLR
00:59 72.0 °F 65.1 °F 30.12 in NW 5.1 mph   79% 0.00 in CLR
01:04 72.0 °F 65.1 °F 30.12 in NW 5.1 mph   79% 0.00 in CLR
01:09 72.0 °F 65.1 °F 30.12 in NW 5.1 mph   79% 0.00 in CLR
01:14 71.9 °F 65.4 °F 30.12 in NW 5.1 mph   80% 0.00 in CLR
01:19 71.9 °F 65.0 °F 30.12 in NW 5.1 mph   79% 0.00 in CLR
01:24 71.8 °F 64.9 °F 30.12 in NW 5.1 mph   79% 0.00 in CLR
01:29 71.8 °F 64.9 °F 30.12 in NW 5.1 mph   79% 0.00 in CLR
01:34 71.8 °F 65.3 °F 30.13 in NW 5.1 mph   80% 0.00 in CLR
01:40 71.8 °F 64.9 °F 30.13 in NW 5.1 mph   79% 0.00 in CLR
01:45 71.7 °F 64.8 °F 30.12 in Calm     79% 0.00 in CLR
01:50 71.6 °F 65.1 °F 30.12 in Calm     80% 0.00 in CLR
01:55 71.6 °F 64.7 °F 30.12 in Calm     79% 0.00 in CLR
02:00 71.7 °F 64.8 °F 30.13 in Calm     79% 0.00 in CLR
02:05 71.8 °F 64.6 °F 30.13 in Calm   1.0 mph 78% 0.00 in CLR
02:10 72.1 °F 64.9 °F 30.13 in Calm   1.0 mph 78% 0.00 in CLR
02:15 72.4 °F 64.8 °F 30.13 in Calm   1.0 mph 77% 0.00 in CLR
02:20 72.5 °F 64.9 °F 30.12 in Calm   1.0 mph 77% 0.00 in CLR
02:25 72.6 °F 64.6 °F 30.13 in Calm   1.0 mph 76% 0.00 in CLR
02:30 72.7 °F 64.7 °F 30.13 in Calm   1.0 mph 76% 0.00 in CLR
02:35 72.7 °F 64.7 °F 30.13 in Calm   2.0 mph 76% 0.00 in CLR
02:40 72.7 °F 64.7 °F 30.13 in Calm     76% 0.00 in CLR
02:45 72.7 °F 64.7 °F 30.13 in NNW 5.1 mph 5.1 mph 76% 0.00 in CLR
02:50 72.6 °F 64.6 °F 30.13 in Calm   1.0 mph 76% 0.00 in CLR
02:55 72.5 °F 64.5 °F 30.13 in Calm   1.0 mph 76% 0.00 in CLR
03:00 72.4 °F 64.8 °F 30.13 in Calm   1.0 mph 77% 0.00 in CLR
03:05 72.3 °F 64.7 °F 30.13 in Calm     77% 0.00 in CLR
03:10 72.1 °F 64.5 °F 30.13 in Calm     77% 0.00 in CLR
03:15 72.0 °F 64.8 °F 30.13 in Calm     78% 0.00 in CLR
03:20 71.9 °F 64.3 °F 30.13 in Calm     77% 0.00 in CLR
03:25 71.8 °F 64.6 °F 30.13 in Calm     78% 0.00 in CLR
03:30 71.7 °F 64.5 °F 30.13 in NNW 5.1 mph   78% 0.00 in CLR
03:35 70.6 °F 63.4 °F 30.13 in NNW 5.1 mph   78% 0.00 in CLR
03:36 70.6 °F 63.4 °F 30.13 in NNW 5.1 mph   78% 0.00 in CLR
03:41 70.6 °F 63.4 °F 30.13 in NNW 5.1 mph   78% 0.00 in CLR
03:46 70.6 °F 63.4 °F 30.12 in NNE 5.1 mph   78% 0.00 in CLR
03:51 70.6 °F 63.4 °F 30.13 in North 5.1 mph   78% 0.00 in CLR
03:56 70.6 °F 63.4 °F 30.13 in North 5.1 mph   78% 0.00 in CLR
04:01 70.6 °F 63.4 °F 30.13 in North 5.1 mph   78% 0.00 in CLR
04:06 70.6 °F 63.4 °F 30.14 in North 5.1 mph   78% 0.00 in CLR
04:11 70.6 °F 63.4 °F 30.14 in North 5.1 mph   78% 0.00 in FEW
04:16 70.6 °F 63.4 °F 30.14 in North 5.1 mph   78% 0.00 in FEW
04:21 70.6 °F 63.4 °F 30.14 in North 5.1 mph   78% 0.00 in FEW
04:26 70.6 °F 63.4 °F 30.14 in North 5.1 mph   78% 0.00 in FEW
04:31 70.6 °F 63.4 °F 30.15 in North 5.1 mph   78% 0.00 in FEW
04:37 70.6 °F 63.4 °F 30.14 in North 5.1 mph   78% 0.00 in FEW
04:42 70.6 °F 63.4 °F 30.15 in North 5.1 mph   78% 0.00 in FEW
04:47 70.6 °F 63.4 °F 30.15 in North 5.1 mph   78% 0.00 in FEW
04:52 70.6 °F 63.4 °F 30.15 in North 5.1 mph   78% 0.00 in FEW
04:57 70.6 °F 63.4 °F 30.15 in North 5.1 mph   78% 0.00 in FEW
05:02 70.6 °F 63.4 °F 30.15 in North 5.1 mph   78% 0.00 in FEW
05:07 70.6 °F 63.4 °F 30.15 in North 5.1 mph   78% 0.00 in FEW
05:12 70.6 °F 63.4 °F 30.15 in North 5.1 mph   78% 0.00 in OVC
05:17 70.6 °F 63.4 °F 30.15 in North 5.1 mph   78% 0.00 in OVC
05:22 70.6 °F 63.4 °F 30.15 in North 5.1 mph   78% 0.00 in OVC
05:27 70.6 °F 63.4 °F 30.15 in North 5.1 mph   78% 0.00 in OVC
05:32 70.6 °F 63.4 °F 30.15 in North 5.1 mph   78% 0.00 in OVC
05:37 70.6 °F 63.4 °F 30.15 in North 5.1 mph   78% 0.00 in OVC
05:43 70.6 °F 63.4 °F 30.15 in North 5.1 mph   78% 0.00 in OVC
05:48 70.6 °F 63.4 °F 30.16 in North 5.1 mph   78% 0.00 in OVC
05:53 70.6 °F 63.4 °F 30.15 in North 5.1 mph   78% 0.00 in OVC
05:58 70.6 °F 63.4 °F 30.16 in North 5.1 mph   78% 0.00 in OVC
06:03 70.6 °F 63.4 °F 30.15 in North 5.1 mph   78% 0.00 in OVC
06:08 70.6 °F 63.4 °F 30.16 in North 5.1 mph   78% 0.00 in OVC
06:13 70.6 °F 63.4 °F 30.16 in North 5.1 mph   78% 0.00 in BKN
06:18 70.6 °F 63.4 °F 30.15 in North 5.1 mph   78% 0.00 in BKN
06:23 70.6 °F 63.4 °F 30.16 in North 5.1 mph   78% 0.00 in BKN
06:28 70.6 °F 63.4 °F 30.16 in North 5.1 mph   78% 0.00 in BKN
06:33 70.6 °F 63.4 °F 30.16 in North 5.1 mph   78% 0.00 in BKN
06:38 70.6 °F 63.4 °F 30.16 in North 5.1 mph   78% 0.00 in BKN
06:43 70.6 °F 63.4 °F 30.16 in North 5.1 mph   78% 0.00 in BKN
06:48 70.6 °F 63.4 °F 30.16 in North 5.1 mph   78% 0.00 in BKN
06:53 70.6 °F 63.4 °F 30.16 in North 5.1 mph   78% 0.00 in BKN
06:58 70.6 °F 63.4 °F 30.16 in North 5.1 mph   78% 0.00 in BKN
07:04 70.6 °F 63.4 °F 30.16 in North 5.1 mph   78% 0.00 in BKN
07:09 70.6 °F 63.4 °F 30.16 in North 5.1 mph   78% 0.00 in BKN
07:14 70.6 °F 63.4 °F 30.16 in North 5.1 mph   78% 0.00 in BKN
07:17 70.6 °F 63.4 °F 30.16 in North 5.1 mph   78% 0.00 in BKN
07:22 70.6 °F 63.4 °F 30.15 in North 5.1 mph   78% 0.00 in BKN
07:27 70.6 °F 63.4 °F 30.16 in North 5.1 mph   78% 0.00 in BKN
07:32 70.6 °F 63.4 °F 30.15 in North 5.1 mph   78% 0.00 in BKN
07:37 70.6 °F 63.4 °F 30.15 in North 5.1 mph   78% 0.00 in BKN
07:42 70.6 °F 63.4 °F 30.15 in North 5.1 mph   78% 0.00 in BKN
07:47 71.1 °F 67.0 °F 30.15 in NNW 5.1 mph   87% 0.00 in BKN
07:52 71.5 °F 67.1 °F 30.15 in NNW 5.1 mph   86% 0.00 in CLR
07:58 71.8 °F 67.4 °F 30.15 in NNW 5.1 mph   86% 0.00 in CLR
08:03 72.0 °F 67.2 °F 30.15 in NW 5.1 mph   85% 0.00 in CLR
08:08 72.2 °F 67.8 °F 30.16 in NW 5.1 mph   86% 0.00 in CLR
08:13 72.3 °F 67.9 °F 30.15 in NW 5.1 mph   86% 0.00 in SCT
08:18 72.4 °F 67.6 °F 30.16 in NW 5.1 mph   85% 0.00 in SCT
08:23 72.5 °F 67.7 °F 30.16 in NW 5.1 mph   85% 0.00 in SCT
08:28 72.6 °F 67.8 °F 30.15 in NW 5.1 mph   85% 0.00 in SCT
08:33 72.6 °F 68.2 °F 30.16 in NW 5.1 mph   86% 0.00 in SCT
08:38 72.6 °F 67.8 °F 30.16 in NW 5.1 mph   85% 0.00 in SCT
08:44 72.6 °F 68.2 °F 30.16 in NW 5.1 mph   86% 0.00 in SCT
08:49 72.7 °F 68.3 °F 30.16 in NW 5.1 mph   86% 0.00 in SCT
08:54 72.8 °F 68.4 °F 30.16 in NW 5.1 mph   86% 0.00 in SCT
08:59 72.9 °F 68.1 °F 30.16 in NNE 5.1 mph   85% 0.00 in SCT
09:04 73.0 °F 68.6 °F 30.16 in NNW 5.1 mph   86% 0.00 in SCT
09:09 73.1 °F 68.7 °F 30.16 in WNW 5.1 mph   86% 0.00 in SCT
09:14 73.3 °F 68.9 °F 30.15 in WSW 5.1 mph   86% 0.00 in OVC
09:19 73.4 °F 69.0 °F 30.15 in West 5.1 mph   86% 0.00 in OVC
09:24 73.6 °F 69.2 °F 30.16 in WNW 5.1 mph   86% 0.00 in OVC
09:29 73.7 °F 68.9 °F 30.16 in WNW 5.1 mph   85% 0.00 in OVC
09:34 73.7 °F 68.9 °F 30.16 in WSW 5.1 mph 5.1 mph 85% 0.00 in OVC
09:39 73.7 °F 68.9 °F 30.16 in WNW 5.1 mph 5.1 mph 85% 0.00 in OVC
09:45 73.9 °F 69.1 °F 30.15 in NW 5.1 mph 5.1 mph 85% 0.00 in OVC
09:50 74.0 °F 68.9 °F 30.15 in Calm   1.0 mph 84% 0.00 in OVC
09:55 74.1 °F 69.0 °F 30.15 in Calm   1.0 mph 84% 0.00 in OVC
10:00 74.3 °F 69.2 °F 30.15 in Calm   1.0 mph 84% 0.00 in OVC
10:05 74.6 °F 69.1 °F 30.15 in NW 5.1 mph 5.1 mph 83% 0.00 in OVC
10:10 74.5 °F 69.0 °F 30.15 in Calm   2.0 mph 83% 0.00 in OVC
10:15 74.7 °F 69.6 °F 30.15 in Calm   1.0 mph 84% 0.00 in OVC
10:20 75.1 °F 69.6 °F 30.15 in Calm   1.0 mph 83% 0.00 in OVC
10:25 75.3 °F 69.4 °F 30.15 in Calm     82% 0.00 in OVC
10:30 75.4 °F 69.9 °F 30.15 in Calm   2.0 mph 83% 0.00 in OVC
10:35 75.7 °F 70.2 °F 30.15 in NW 5.1 mph   83% 0.00 in OVC
10:40 76.2 °F 70.3 °F 30.15 in Calm   2.0 mph 82% 0.00 in OVC
10:45 76.8 °F 70.5 °F 30.15 in NNW 5.1 mph   81% 0.00 in OVC
10:50 76.8 °F 70.2 °F 30.14 in Calm   1.0 mph 80% 0.00 in OVC
10:55 76.7 °F 70.1 °F 30.14 in Calm   1.0 mph 80% 0.00 in OVC
11:00 76.7 °F 70.4 °F 30.14 in Calm   1.0 mph 81% 0.00 in OVC
11:05 77.0 °F 70.4 °F 30.14 in Calm   1.0 mph 80% 0.00 in OVC
11:10 77.3 °F 70.6 °F 30.15 in Calm   1.0 mph 80% 0.00 in OVC
11:15 77.9 °F 70.8 °F 30.14 in Calm   1.0 mph 79% 0.00 in OVC
11:20 78.5 °F 71.1 °F 30.14 in Calm   1.0 mph 78% 0.00 in OVC
11:25 78.4 °F 70.2 °F 30.14 in Calm   1.0 mph 76% 0.00 in OVC
11:30 78.5 °F 71.1 °F 30.14 in North 5.1 mph 5.1 mph 78% 0.00 in OVC
11:35 78.7 °F 70.9 °F 30.14 in Calm   2.0 mph 77% 0.00 in OVC
11:40 78.7 °F 71.3 °F 30.14 in Calm   1.0 mph 78% 0.00 in OVC
11:45 79.0 °F 71.2 °F 30.14 in WNW 1.0 mph 3.0 mph 77% 0.00 in OVC
11:50 79.1 °F 70.9 °F 30.14 in Calm   2.0 mph 76% 0.00 in OVC
11:55 78.7 °F 70.5 °F 30.14 in Calm   1.0 mph 76% 0.00 in BKN
12:00 78.3 °F 70.5 °F 30.14 in NW 5.1 mph   77% 0.00 in BKN
12:05 77.8 °F 70.4 °F 30.13 in Calm   1.0 mph 78% 0.00 in BKN
12:10 77.8 °F 71.1 °F 30.13 in Calm   1.0 mph 80% 0.00 in BKN
12:15 77.4 °F 71.1 °F 30.13 in NE 5.1 mph   81% 0.00 in BKN
12:20 77.5 °F 71.6 °F 30.13 in Calm   2.0 mph 82% 0.00 in BKN
12:25 77.6 °F 71.3 °F 30.13 in Calm   1.0 mph 81% 0.00 in BKN
12:30 77.7 °F 71.4 °F 30.12 in Calm   1.0 mph 81% 0.00 in BKN
12:35 78.2 °F 71.1 °F 30.12 in Calm   1.0 mph 79% 0.00 in BKN
12:40 78.5 °F 71.4 °F 30.12 in Calm   1.0 mph 79% 0.00 in BKN
12:45 79.3 °F 72.5 °F 30.12 in Calm   1.0 mph 80% 0.00 in BKN
12:50 80.3 °F 71.7 °F 30.12 in Calm   1.0 mph 75% 0.00 in BKN
12:55 80.2 °F 70.4 °F 30.12 in Calm   2.0 mph 72% 0.00 in BKN
13:00 79.9 °F 70.9 °F 30.12 in NNW 5.1 mph 5.1 mph 74% 0.00 in BKN
13:05 80.3 °F 72.0 °F 30.12 in Calm   1.0 mph 76% 0.00 in BKN
13:10 80.7 °F 70.8 °F 30.11 in Calm   1.0 mph 72% 0.00 in BKN
13:15 80.8 °F 69.7 °F 30.11 in WNW 5.1 mph 5.1 mph 69% 0.00 in BKN
13:20 80.8 °F 70.1 °F 30.11 in Calm   2.0 mph 70% 0.00 in BKN
13:25 80.7 °F 70.0 °F 30.11 in Calm     70% 0.00 in BKN
13:30 80.5 °F 70.2 °F 30.11 in Calm     71% 0.00 in BKN
13:35 80.1 °F 70.7 °F 30.11 in NNW 5.1 mph 5.1 mph 73% 0.00 in BKN
13:40 79.9 °F 70.5 °F 30.11 in Calm   2.0 mph 73% 0.00 in BKN
13:45 80.5 °F 70.2 °F 30.10 in NW 1.0 mph 3.0 mph 71% 0.00 in BKN
13:50 80.0 °F 69.8 °F 30.10 in Calm   1.0 mph 71% 0.00 in BKN
13:55 79.7 °F 70.3 °F 30.10 in Calm     73% 0.00 in BKN
14:00 80.0 °F 70.6 °F 30.10 in Calm   1.0 mph 73% 0.00 in BKN
14:05 79.9 °F 70.5 °F 30.10 in WNW 5.1 mph   73% 0.00 in BKN
14:10 79.6 °F 71.8 °F 30.10 in NW 5.1 mph   77% 0.00 in BKN
14:15 78.5 °F 71.8 °F 30.09 in NW 5.1 mph   80% 0.00 in BKN
14:20 77.9 °F 72.3 °F 30.09 in NW 5.1 mph   83% 0.00 in BKN
14:25 77.4 °F 72.9 °F 30.09 in NW 5.1 mph   86% 0.00 in BKN
14:30 77.5 °F 73.7 °F 30.09 in NW 5.1 mph   88% 0.00 in BKN
14:35 77.3 °F 73.1 °F 30.09 in NW 5.1 mph   87% 0.00 in BKN
14:41 77.3 °F 73.1 °F 30.08 in NW 5.1 mph   87% 0.01 in RA
14:46 77.7 °F 73.9 °F 30.08 in NW 5.1 mph   88% 0.01 in BKN
14:48 77.8 °F 73.3 °F 30.08 in NW 5.1 mph   86% 0.01 in BKN
14:53 77.7 °F 73.2 °F 30.08 in North 5.1 mph   86% 0.01 in BKN
14:58 77.4 °F 72.5 °F 30.08 in North 5.1 mph   85% 0.01 in BKN
15:03 77.2 °F 72.3 °F 30.08 in North 5.1 mph   85% 0.01 in BKN
15:08 77.1 °F 72.2 °F 30.08 in North 5.1 mph   85% 0.01 in BKN
15:13 77.0 °F 72.1 °F 30.08 in North 5.1 mph   85% 0.01 in BKN
15:18 76.7 °F 72.2 °F 30.08 in North 5.1 mph   86% 0.01 in BKN
15:23 76.5 °F 72.3 °F 30.08 in North 5.1 mph   87% 0.01 in BKN
15:28 76.5 °F 72.7 °F 30.08 in North 5.1 mph   88% 0.01 in BKN
15:33 76.4 °F 71.9 °F 30.08 in North 5.1 mph   86% 0.01 in BKN
15:37 76.4 °F 71.9 °F 30.08 in North 5.1 mph   86% 0.01 in BKN
15:42 76.5 °F 71.7 °F 30.08 in NW 5.1 mph 5.1 mph 85% 0.00 in BKN
15:47 76.6 °F 71.4 °F 30.08 in NW 5.1 mph   84% 0.00 in BKN
15:52 76.4 °F 71.2 °F 30.08 in NW 5.1 mph   84% 0.00 in BKN
15:57 76.4 °F 71.6 °F 30.08 in NW 5.1 mph   85% 0.00 in BKN
16:02 76.4 °F 71.6 °F 30.08 in NW 5.1 mph   85% 0.00 in BKN
16:07 76.5 °F 71.3 °F 30.08 in NW 5.1 mph   84% 0.01 in BKN
16:12 76.8 °F 72.3 °F 30.07 in NW 5.1 mph   86% 0.01 in OVC
16:18 77.2 °F 72.3 °F 30.08 in NW 5.1 mph   85% 0.01 in OVC
18:47 69.9 °F 67.2 °F 30.11 in NNW 5.1 mph   91% 0.01 in OVC
18:52 69.8 °F 67.1 °F 30.11 in NNW 5.1 mph   91% 0.01 in -RA
18:57 69.7 °F 67.3 °F 30.10 in NNW 5.1 mph   92% 0.01 in -RA
19:02 69.6 °F 67.2 °F 30.10 in NNW 5.1 mph   92% 0.01 in -RA
19:07 69.7 °F 67.3 °F 30.10 in NNW 5.1 mph   92% 0.01 in -RA
19:12 69.7 °F 67.3 °F 30.10 in NNW 5.1 mph   92% 0.01 in -RA
19:17 69.7 °F 67.3 °F 30.10 in NNW 5.1 mph   92% 0.01 in -RA
19:22 69.7 °F 67.3 °F 30.10 in NNW 5.1 mph   92% 0.01 in -RA
19:27 69.8 °F 67.7 °F 30.10 in NNW 5.1 mph   93% 0.01 in -RA
19:32 69.8 °F 67.7 °F 30.10 in NNW 5.1 mph   93% 0.01 in -RA
19:37 69.8 °F 67.7 °F 30.10 in NNW 5.1 mph   93% 0.00 in -RA
19:43 69.9 °F 67.8 °F 30.10 in NNW 5.1 mph   93% 0.00 in -RA
19:48 70.0 °F 67.9 °F 30.10 in NNW 5.1 mph   93% 0.00 in -RA
19:53 70.0 °F 67.9 °F 30.11 in NNW 5.1 mph   93% 0.01 in -RA
19:58 70.0 °F 67.9 °F 30.10 in NNW 5.1 mph   93% 0.01 in -RA
20:03 70.0 °F 67.9 °F 30.10 in NNW 5.1 mph   93% 0.01 in -RA
20:08 70.0 °F 67.9 °F 30.10 in NNW 5.1 mph   93% 0.01 in -RA
20:13 69.9 °F 67.8 °F 30.10 in NNW 5.1 mph   93% 0.01 in -RA
20:18 69.9 °F 67.8 °F 30.09 in NNW 5.1 mph   93% 0.01 in -RA
20:23 69.9 °F 67.8 °F 30.09 in NNW 5.1 mph   93% 0.01 in -RA
20:28 69.8 °F 67.7 °F 30.09 in NNW 5.1 mph   93% 0.01 in -RA
20:33 69.8 °F 67.7 °F 30.09 in NNW 5.1 mph   93% 0.01 in -RA
20:38 69.8 °F 67.7 °F 30.09 in NNW 5.1 mph   93% 0.01 in -RA
20:43 69.9 °F 67.8 °F 30.09 in NNW 5.1 mph   93% 0.01 in -DZ
20:48 69.9 °F 67.8 °F 30.09 in NNW 5.1 mph   93% 0.01 in -DZ
20:54 69.9 °F 67.8 °F 30.09 in NNW 5.1 mph   93% 0.01 in -DZ
20:59 69.9 °F 67.8 °F 30.09 in NNW 5.1 mph   93% 0.01 in -DZ
21:04 69.9 °F 67.8 °F 30.09 in NNW 5.1 mph   93% 0.01 in -DZ
21:09 69.9 °F 67.8 °F 30.09 in NNW 5.1 mph   93% 0.01 in -DZ
21:14 69.9 °F 67.8 °F 30.09 in NNW 5.1 mph   93% 0.01 in -DZ
21:19 70.0 °F 67.9 °F 30.09 in NNW 5.1 mph   93% 0.01 in -DZ
21:24 70.0 °F 67.9 °F 30.09 in NNW 5.1 mph   93% 0.01 in -DZ
21:29 70.0 °F 67.9 °F 30.09 in NNW 5.1 mph   93% 0.01 in -DZ
21:34 70.0 °F 67.9 °F 30.10 in NNW 5.1 mph   93% 0.01 in -DZ
21:39 69.9 °F 67.8 °F 30.10 in NNW 5.1 mph   93% 0.01 in -DZ
21:44 69.9 °F 67.8 °F 30.10 in NNW 5.1 mph 5.1 mph 93% 0.02 in -DZ
21:49 69.9 °F 67.8 °F 30.10 in NNW 5.1 mph   93% 0.01 in -DZ
21:54 69.9 °F 67.8 °F 30.11 in NNW 5.1 mph   93% 0.01 in -DZ
21:59 70.0 °F 67.9 °F 30.11 in NNW 5.1 mph   93% 0.01 in -DZ
22:04 70.0 °F 67.9 °F 30.11 in NNW 5.1 mph   93% 0.01 in -DZ
22:09 70.0 °F 67.9 °F 30.11 in NNW 5.1 mph   93% 0.01 in -DZ
22:15 70.1 °F 68.0 °F 30.11 in NNW 5.1 mph   93% 0.01 in -DZ
22:20 70.1 °F 68.0 °F 30.11 in Calm   1.0 mph 93% 0.00 in -DZ
22:25 70.1 °F 68.0 °F 30.11 in Calm     93% 0.00 in -DZ
22:30 70.2 °F 68.1 °F 30.11 in Calm   1.0 mph 93% 0.00 in -DZ
22:35 70.2 °F 68.1 °F 30.12 in Calm     93% 0.00 in -DZ
22:40 70.2 °F 68.1 °F 30.12 in Calm   1.0 mph 93% 0.00 in -DZ
22:45 70.2 °F 68.1 °F 30.11 in Calm     93% 0.00 in -DZ
22:50 70.2 °F 68.1 °F 30.11 in Calm     93% 0.00 in -DZ
22:55 70.3 °F 68.2 °F 30.11 in NNW 5.1 mph   93% 0.01 in -DZ
23:00 70.3 °F 68.2 °F 30.11 in Calm     93% 0.00 in -DZ
23:05 70.3 °F 68.2 °F 30.11 in Calm   1.0 mph 93% 0.00 in -DZ
23:10 70.3 °F 68.2 °F 30.11 in Calm   1.0 mph 93% 0.00 in -DZ
23:15 70.3 °F 68.2 °F 30.11 in Calm   1.0 mph 93% 0.00 in -DZ
23:20 70.3 °F 68.2 °F 30.10 in Calm   1.0 mph 93% 0.00 in -DZ
23:25 70.3 °F 68.2 °F 30.10 in Calm     93% 0.00 in -DZ
23:30 70.3 °F 68.2 °F 30.10 in Calm     93% 0.00 in -DZ
23:35 70.3 °F 68.2 °F 30.10 in Calm   1.0 mph 93% 0.00 in -DZ
23:40 70.3 °F 68.5 °F 30.09 in Calm   1.0 mph 94% 0.00 in -DZ
23:45 70.3 °F 68.5 °F 30.10 in Calm   1.0 mph 94% 0.00 in -DZ
23:50 70.3 °F 68.5 °F 30.09 in NNW 5.1 mph   94% 0.01 in -DZ
23:55 70.3 °F 68.5 °F 30.09 in Calm   1.0 mph 94% 0.00 in -DZ
Piedmont Bend
Compliments of Weather Underground - 2 mb